Spearsville, Indiana
Current Conditions -  °F | °C
As of 10:55 AM on Friday 24 Oct 2014 (Local Time) from K1II Reporting Station
Scattered Clouds Scattered Clouds  
Wind Chill: 55°   Ceiling: Unl
Heat Index: 55°   Visibility: 10mi
Dew Point: 45°   Wind: 5mph
Humidity: 67%   Direction: 210°SSW
Pressure: 30.12"   Gusts: NA
Location:  39.3709°N, 86.1938°W
Report Text: K1II 241455Z AUTO 21004KT 10SM SCT065 SCT085 SCT110 13/07 A3012 RMK AO2
Loading
Personal Weather Stations






























Interactive Weather Map
Tropical Storm Tracking
New forecast layout! Learn more

10-Day Weather Forecast

Advertisements
Track Severe Weather on mobile